sensor_id;sensor_type;location;lat;lon;timestamp;temperature;humidity
26278;DHT22;14000;52.056;8.510;2022-09-09T00:04:35;16.00;99.90
26278;DHT22;14000;52.056;8.510;2022-09-09T00:23:28;16.00;99.90
26278;DHT22;14000;52.056;8.510;2022-09-09T00:28:27;16.00;99.90
26278;DHT22;14000;52.056;8.510;2022-09-09T00:30:56;16.10;99.90
26278;DHT22;14000;52.056;8.510;2022-09-09T00:33:26;16.20;99.90
26278;DHT22;14000;52.056;8.510;2022-09-09T00:35:57;16.20;99.90
26278;DHT22;14000;52.056;8.510;2022-09-09T00:38:39;16.20;99.90
26278;DHT22;14000;52.056;8.510;2022-09-09T00:44:03;16.20;99.90
26278;DHT22;14000;52.056;8.510;2022-09-09T00:46:50;16.30;99.90
26278;DHT22;14000;52.056;8.510;2022-09-09T00:49:29;16.20;99.90
26278;DHT22;14000;52.056;8.510;2022-09-09T00:57:33;16.20;99.90
26278;DHT22;14000;52.056;8.510;2022-09-09T01:05:33;16.20;99.90
26278;DHT22;14000;52.056;8.510;2022-09-09T01:08:01;16.20;99.90
26278;DHT22;14000;52.056;8.510;2022-09-09T01:10:47;16.20;99.90
26278;DHT22;14000;52.056;8.510;2022-09-09T01:13:28;16.10;99.90
26278;DHT22;14000;52.056;8.510;2022-09-09T01:15:58;16.10;99.90
26278;DHT22;14000;52.056;8.510;2022-09-09T01:18:49;16.00;99.90
26278;DHT22;14000;52.056;8.510;2022-09-09T01:21:39;16.00;99.90
26278;DHT22;14000;52.056;8.510;2022-09-09T01:24:40;16.00;99.90
26278;DHT22;14000;52.056;8.510;2022-09-09T01:27:10;16.00;99.90
26278;DHT22;14000;52.056;8.510;2022-09-09T01:29:37;16.00;99.90
26278;DHT22;14000;52.056;8.510;2022-09-09T01:32:37;16.00;99.90
26278;DHT22;14000;52.056;8.510;2022-09-09T01:35:04;15.90;99.90
26278;DHT22;14000;52.056;8.510;2022-09-09T01:37:30;16.00;99.90
26278;DHT22;14000;52.056;8.510;2022-09-09T01:39:56;16.00;99.90
26278;DHT22;14000;52.056;8.510;2022-09-09T01:42:22;16.00;99.90
26278;DHT22;14000;52.056;8.510;2022-09-09T01:44:47;16.10;99.90
26278;DHT22;14000;52.056;8.510;2022-09-09T01:47:14;16.10;99.90
26278;DHT22;14000;52.056;8.510;2022-09-09T01:49:40;16.00;99.90
26278;DHT22;14000;52.056;8.510;2022-09-09T01:52:06;16.10;99.90
26278;DHT22;14000;52.056;8.510;2022-09-09T01:54:33;16.10;99.90
26278;DHT22;14000;52.056;8.510;2022-09-09T01:57:11;16.10;99.90
26278;DHT22;14000;52.056;8.510;2022-09-09T02:00:11;16.10;99.90
26278;DHT22;14000;52.056;8.510;2022-09-09T02:02:48;16.10;99.90
26278;DHT22;14000;52.056;8.510;2022-09-09T02:05:37;16.20;99.90
26278;DHT22;14000;52.056;8.510;2022-09-09T02:08:08;16.10;99.90
26278;DHT22;14000;52.056;8.510;2022-09-09T02:10:46;16.10;99.90
26278;DHT22;14000;52.056;8.510;2022-09-09T02:13:16;16.10;99.90
26278;DHT22;14000;52.056;8.510;2022-09-09T02:15:47;16.10;99.90
26278;DHT22;14000;52.056;8.510;2022-09-09T02:18:57;16.00;99.90
26278;DHT22;14000;52.056;8.510;2022-09-09T02:21:16;16.00;99.90
26278;DHT22;14000;52.056;8.510;2022-09-09T02:23:43;15.90;99.90
26278;DHT22;14000;52.056;8.510;2022-09-09T02:26:13;16.00;99.90
26278;DHT22;14000;52.056;8.510;2022-09-09T02:28:46;15.90;99.90
26278;DHT22;14000;52.056;8.510;2022-09-09T02:31:16;16.00;99.90
26278;DHT22;14000;52.056;8.510;2022-09-09T02:33:47;15.90;99.90
26278;DHT22;14000;52.056;8.510;2022-09-09T02:36:16;15.90;99.90
26278;DHT22;14000;52.056;8.510;2022-09-09T02:38:46;15.80;99.90
26278;DHT22;14000;52.056;8.510;2022-09-09T02:41:18;15.80;99.90
26278;DHT22;14000;52.056;8.510;2022-09-09T02:43:45;15.80;99.90
26278;DHT22;14000;52.056;8.510;2022-09-09T02:48:59;15.80;99.90
26278;DHT22;14000;52.056;8.510;2022-09-09T02:56:38;15.70;99.90
26278;DHT22;14000;52.056;8.510;2022-09-09T02:59:05;15.60;99.90
26278;DHT22;14000;52.056;8.510;2022-09-09T03:01:31;15.60;99.90
26278;DHT22;14000;52.056;8.510;2022-09-09T03:03:57;15.60;99.90
26278;DHT22;14000;52.056;8.510;2022-09-09T03:06:22;15.60;99.90
26278;DHT22;14000;52.056;8.510;2022-09-09T03:08:48;15.50;99.90
26278;DHT22;14000;52.056;8.510;2022-09-09T03:11:15;15.40;99.90
26278;DHT22;14000;52.056;8.510;2022-09-09T03:13:41;15.40;99.90
26278;DHT22;14000;52.056;8.510;2022-09-09T03:16:07;15.30;99.90
26278;DHT22;14000;52.056;8.510;2022-09-09T03:18:32;15.20;99.90
26278;DHT22;14000;52.056;8.510;2022-09-09T03:21:00;15.10;99.90
26278;DHT22;14000;52.056;8.510;2022-09-09T03:23:26;15.10;99.90
26278;DHT22;14000;52.056;8.510;2022-09-09T03:25:52;15.00;99.90
26278;DHT22;14000;52.056;8.510;2022-09-09T03:28:18;15.00;99.90
26278;DHT22;14000;52.056;8.510;2022-09-09T03:30:44;14.90;99.90
26278;DHT22;14000;52.056;8.510;2022-09-09T03:33:10;14.90;99.90
26278;DHT22;14000;52.056;8.510;2022-09-09T03:35:35;14.90;99.90
26278;DHT22;14000;52.056;8.510;2022-09-09T03:38:01;14.80;99.90
26278;DHT22;14000;52.056;8.510;2022-09-09T03:40:27;14.80;99.90
26278;DHT22;14000;52.056;8.510;2022-09-09T03:42:52;14.80;99.90
26278;DHT22;14000;52.056;8.510;2022-09-09T03:45:18;14.90;99.90
26278;DHT22;14000;52.056;8.510;2022-09-09T03:47:44;14.80;99.90
26278;DHT22;14000;52.056;8.510;2022-09-09T03:50:10;14.80;99.90
26278;DHT22;14000;52.056;8.510;2022-09-09T03:52:37;14.80;99.90
26278;DHT22;14000;52.056;8.510;2022-09-09T03:55:04;15.00;99.90
26278;DHT22;14000;52.056;8.510;2022-09-09T03:57:30;14.80;99.90
26278;DHT22;14000;52.056;8.510;2022-09-09T03:59:57;14.80;99.90
26278;DHT22;14000;52.056;8.510;2022-09-09T04:02:23;14.80;99.90
26278;DHT22;14000;52.056;8.510;2022-09-09T04:04:49;14.80;99.90
26278;DHT22;14000;52.056;8.510;2022-09-09T04:07:14;14.70;99.90
26278;DHT22;14000;52.056;8.510;2022-09-09T04:09:41;14.80;99.90
26278;DHT22;14000;52.056;8.510;2022-09-09T04:12:06;14.90;99.90
26278;DHT22;14000;52.056;8.510;2022-09-09T04:14:32;14.80;99.90
26278;DHT22;14000;52.056;8.510;2022-09-09T04:16:58;14.80;99.90
26278;DHT22;14000;52.056;8.510;2022-09-09T04:19:25;14.80;99.90
26278;DHT22;14000;52.056;8.510;2022-09-09T04:21:51;14.80;99.90
26278;DHT22;14000;52.056;8.510;2022-09-09T04:24:17;14.90;99.90
26278;DHT22;14000;52.056;8.510;2022-09-09T04:26:43;14.90;99.90
26278;DHT22;14000;52.056;8.510;2022-09-09T04:29:08;14.90;99.90
26278;DHT22;14000;52.056;8.510;2022-09-09T04:31:35;15.00;99.90
26278;DHT22;14000;52.056;8.510;2022-09-09T04:34:00;15.00;99.90
26278;DHT22;14000;52.056;8.510;2022-09-09T04:36:31;15.10;99.90
26278;DHT22;14000;52.056;8.510;2022-09-09T04:38:57;15.20;99.90
26278;DHT22;14000;52.056;8.510;2022-09-09T04:41:23;15.30;99.90
26278;DHT22;14000;52.056;8.510;2022-09-09T04:43:49;15.20;99.90
26278;DHT22;14000;52.056;8.510;2022-09-09T04:46:15;15.10;99.90
26278;DHT22;14000;52.056;8.510;2022-09-09T04:48:43;15.10;99.90
26278;DHT22;14000;52.056;8.510;2022-09-09T04:51:11;15.00;99.90
26278;DHT22;14000;52.056;8.510;2022-09-09T04:53:37;15.00;99.90
26278;DHT22;14000;52.056;8.510;2022-09-09T04:56:13;14.90;99.90
26278;DHT22;14000;52.056;8.510;2022-09-09T04:58:40;14.90;99.90
26278;DHT22;14000;52.056;8.510;2022-09-09T05:01:13;14.80;99.90
26278;DHT22;14000;52.056;8.510;2022-09-09T05:03:39;15.00;99.90
26278;DHT22;14000;52.056;8.510;2022-09-09T05:06:10;14.90;99.90
26278;DHT22;14000;52.056;8.510;2022-09-09T05:08:37;15.00;99.90
26278;DHT22;14000;52.056;8.510;2022-09-09T05:11:11;14.90;99.90
26278;DHT22;14000;52.056;8.510;2022-09-09T05:13:37;15.00;99.90
26278;DHT22;14000;52.056;8.510;2022-09-09T05:16:03;15.10;99.90
26278;DHT22;14000;52.056;8.510;2022-09-09T05:18:28;15.00;99.90
26278;DHT22;14000;52.056;8.510;2022-09-09T05:20:59;15.00;99.90
26278;DHT22;14000;52.056;8.510;2022-09-09T05:23:25;15.00;99.90
26278;DHT22;14000;52.056;8.510;2022-09-09T05:25:58;15.00;99.90
26278;DHT22;14000;52.056;8.510;2022-09-09T05:28:27;15.10;99.90
26278;DHT22;14000;52.056;8.510;2022-09-09T05:31:01;15.10;99.90
26278;DHT22;14000;52.056;8.510;2022-09-09T05:33:29;15.10;99.90
26278;DHT22;14000;52.056;8.510;2022-09-09T05:35:59;15.10;99.90
26278;DHT22;14000;52.056;8.510;2022-09-09T05:38:25;15.10;99.90
26278;DHT22;14000;52.056;8.510;2022-09-09T05:40:52;15.10;99.90
26278;DHT22;14000;52.056;8.510;2022-09-09T05:43:21;15.20;99.90
26278;DHT22;14000;52.056;8.510;2022-09-09T05:45:47;15.20;99.90
26278;DHT22;14000;52.056;8.510;2022-09-09T05:48:14;15.20;99.90
26278;DHT22;14000;52.056;8.510;2022-09-09T05:50:42;15.20;99.90
26278;DHT22;14000;52.056;8.510;2022-09-09T05:53:08;15.30;99.90
26278;DHT22;14000;52.056;8.510;2022-09-09T05:55:34;15.30;99.90
26278;DHT22;14000;52.056;8.510;2022-09-09T05:58:00;15.30;99.90
26278;DHT22;14000;52.056;8.510;2022-09-09T06:00:26;15.40;99.90
26278;DHT22;14000;52.056;8.510;2022-09-09T06:02:52;15.50;99.90
26278;DHT22;14000;52.056;8.510;2022-09-09T06:05:19;15.50;99.90
26278;DHT22;14000;52.056;8.510;2022-09-09T06:07:44;15.60;99.90
26278;DHT22;14000;52.056;8.510;2022-09-09T06:10:11;15.70;99.90
26278;DHT22;14000;52.056;8.510;2022-09-09T06:12:39;15.80;99.90
26278;DHT22;14000;52.056;8.510;2022-09-09T06:15:05;15.80;99.90
26278;DHT22;14000;52.056;8.510;2022-09-09T06:17:31;15.80;99.90
26278;DHT22;14000;52.056;8.510;2022-09-09T06:19:56;15.80;99.90
26278;DHT22;14000;52.056;8.510;2022-09-09T06:22:22;15.80;99.90
26278;DHT22;14000;52.056;8.510;2022-09-09T06:24:48;15.90;99.90
26278;DHT22;14000;52.056;8.510;2022-09-09T06:27:13;15.90;99.90
26278;DHT22;14000;52.056;8.510;2022-09-09T06:29:39;16.00;99.90
26278;DHT22;14000;52.056;8.510;2022-09-09T06:32:05;15.90;99.90
26278;DHT22;14000;52.056;8.510;2022-09-09T06:34:30;16.00;99.90
26278;DHT22;14000;52.056;8.510;2022-09-09T06:36:56;16.10;99.90
26278;DHT22;14000;52.056;8.510;2022-09-09T06:39:23;16.10;99.90
26278;DHT22;14000;52.056;8.510;2022-09-09T06:41:49;16.20;99.90
26278;DHT22;14000;52.056;8.510;2022-09-09T06:44:18;16.20;99.90
26278;DHT22;14000;52.056;8.510;2022-09-09T06:46:44;16.30;99.90
26278;DHT22;14000;52.056;8.510;2022-09-09T06:49:12;16.30;99.90
26278;DHT22;14000;52.056;8.510;2022-09-09T06:51:38;16.40;99.90
26278;DHT22;14000;52.056;8.510;2022-09-09T06:54:10;16.50;99.90
26278;DHT22;14000;52.056;8.510;2022-09-09T06:56:37;16.50;99.90
26278;DHT22;14000;52.056;8.510;2022-09-09T06:59:09;16.50;99.90
26278;DHT22;14000;52.056;8.510;2022-09-09T07:01:40;16.50;99.90
26278;DHT22;14000;52.056;8.510;2022-09-09T07:04:07;16.50;99.90
26278;DHT22;14000;52.056;8.510;2022-09-09T07:06:38;16.50;99.90
26278;DHT22;14000;52.056;8.510;2022-09-09T07:09:06;16.60;99.90
26278;DHT22;14000;52.056;8.510;2022-09-09T07:11:36;16.60;99.90
26278;DHT22;14000;52.056;8.510;2022-09-09T07:14:02;16.60;99.90
26278;DHT22;14000;52.056;8.510;2022-09-09T07:16:28;16.60;99.90
26278;DHT22;14000;52.056;8.510;2022-09-09T07:18:55;16.60;99.90
26278;DHT22;14000;52.056;8.510;2022-09-09T07:21:25;16.50;99.90
26278;DHT22;14000;52.056;8.510;2022-09-09T07:23:51;16.50;99.90
26278;DHT22;14000;52.056;8.510;2022-09-09T07:26:19;16.50;99.90
26278;DHT22;14000;52.056;8.510;2022-09-09T07:28:45;16.60;99.90
26278;DHT22;14000;52.056;8.510;2022-09-09T07:31:17;16.60;99.90
26278;DHT22;14000;52.056;8.510;2022-09-09T07:33:44;16.70;99.90
26278;DHT22;14000;52.056;8.510;2022-09-09T07:36:23;16.80;99.90
26278;DHT22;14000;52.056;8.510;2022-09-09T07:39:01;16.90;99.90
26278;DHT22;14000;52.056;8.510;2022-09-09T07:41:31;16.90;99.90
26278;DHT22;14000;52.056;8.510;2022-09-09T07:43:57;16.90;99.90
26278;DHT22;14000;52.056;8.510;2022-09-09T07:46:25;17.00;99.90
26278;DHT22;14000;52.056;8.510;2022-09-09T07:48:54;16.90;99.90
26278;DHT22;14000;52.056;8.510;2022-09-09T07:51:24;17.00;99.90
26278;DHT22;14000;52.056;8.510;2022-09-09T07:54:02;17.10;99.90
26278;DHT22;14000;52.056;8.510;2022-09-09T07:56:29;17.10;99.90
26278;DHT22;14000;52.056;8.510;2022-09-09T07:58:56;17.20;99.90
26278;DHT22;14000;52.056;8.510;2022-09-09T08:01:24;17.20;99.90
26278;DHT22;14000;52.056;8.510;2022-09-09T08:04:02;17.30;99.90
26278;DHT22;14000;52.056;8.510;2022-09-09T08:06:31;17.30;99.90
26278;DHT22;14000;52.056;8.510;2022-09-09T08:08:58;17.40;99.90
26278;DHT22;14000;52.056;8.510;2022-09-09T08:11:25;17.50;99.90
26278;DHT22;14000;52.056;8.510;2022-09-09T08:13:52;17.50;99.90
26278;DHT22;14000;52.056;8.510;2022-09-09T08:16:21;17.60;99.90
26278;DHT22;14000;52.056;8.510;2022-09-09T08:18:50;17.60;99.90
26278;DHT22;14000;52.056;8.510;2022-09-09T08:21:22;17.70;99.90
26278;DHT22;14000;52.056;8.510;2022-09-09T08:23:51;17.70;99.90
26278;DHT22;14000;52.056;8.510;2022-09-09T08:26:23;17.80;99.90
26278;DHT22;14000;52.056;8.510;2022-09-09T08:28:53;17.80;99.90
26278;DHT22;14000;52.056;8.510;2022-09-09T08:31:28;18.00;99.90
26278;DHT22;14000;52.056;8.510;2022-09-09T08:33:54;18.00;99.90
26278;DHT22;14000;52.056;8.510;2022-09-09T08:36:23;18.10;99.90
26278;DHT22;14000;52.056;8.510;2022-09-09T08:38:51;18.20;99.90
26278;DHT22;14000;52.056;8.510;2022-09-09T08:49:44;18.60;99.90
26278;DHT22;14000;52.056;8.510;2022-09-09T08:54:47;18.90;99.90
26278;DHT22;14000;52.056;8.510;2022-09-09T08:57:21;18.80;99.90
26278;DHT22;14000;52.056;8.510;2022-09-09T08:59:52;18.90;99.90
26278;DHT22;14000;52.056;8.510;2022-09-09T09:02:30;19.00;99.90
26278;DHT22;14000;52.056;8.510;2022-09-09T09:05:20;18.90;99.90
26278;DHT22;14000;52.056;8.510;2022-09-09T09:13:13;19.20;99.90
26278;DHT22;14000;52.056;8.510;2022-09-09T09:15:42;19.20;99.90
26278;DHT22;14000;52.056;8.510;2022-09-09T09:18:12;19.10;99.90
26278;DHT22;14000;52.056;8.510;2022-09-09T09:23:23;18.70;99.90
26278;DHT22;14000;52.056;8.510;2022-09-09T09:25:52;18.60;99.90
26278;DHT22;14000;52.056;8.510;2022-09-09T09:28:24;18.40;99.90
26278;DHT22;14000;52.056;8.510;2022-09-09T09:31:01;18.60;99.90
26278;DHT22;14000;52.056;8.510;2022-09-09T09:36:09;18.90;99.90
26278;DHT22;14000;52.056;8.510;2022-09-09T09:38:36;18.90;99.90
26278;DHT22;14000;52.056;8.510;2022-09-09T09:41:03;18.90;99.90
26278;DHT22;14000;52.056;8.510;2022-09-09T09:43:34;18.80;99.90
26278;DHT22;14000;52.056;8.510;2022-09-09T09:46:00;18.90;99.90
26278;DHT22;14000;52.056;8.510;2022-09-09T09:48:28;18.90;99.90
26278;DHT22;14000;52.056;8.510;2022-09-09T09:51:07;19.00;99.90
26278;DHT22;14000;52.056;8.510;2022-09-09T09:53:35;19.00;99.90
26278;DHT22;14000;52.056;8.510;2022-09-09T09:56:05;19.10;99.90
26278;DHT22;14000;52.056;8.510;2022-09-09T09:58:35;19.20;99.90
26278;DHT22;14000;52.056;8.510;2022-09-09T10:01:02;19.20;99.90
26278;DHT22;14000;52.056;8.510;2022-09-09T10:03:30;19.20;99.90
26278;DHT22;14000;52.056;8.510;2022-09-09T10:05:57;19.30;99.90
26278;DHT22;14000;52.056;8.510;2022-09-09T10:08:26;19.20;99.90
26278;DHT22;14000;52.056;8.510;2022-09-09T10:14:20;19.20;99.90
26278;DHT22;14000;52.056;8.510;2022-09-09T10:19:33;19.30;99.90
26278;DHT22;14000;52.056;8.510;2022-09-09T10:30:42;19.60;99.90
26278;DHT22;14000;52.056;8.510;2022-09-09T10:36:13;19.80;99.90
26278;DHT22;14000;52.056;8.510;2022-09-09T10:38:46;19.90;99.90
26278;DHT22;14000;52.056;8.510;2022-09-09T10:41:24;19.90;99.90
26278;DHT22;14000;52.056;8.510;2022-09-09T10:44:04;20.00;99.90
26278;DHT22;14000;52.056;8.510;2022-09-09T10:52:29;19.90;99.90
26278;DHT22;14000;52.056;8.510;2022-09-09T10:55:20;19.90;99.90
26278;DHT22;14000;52.056;8.510;2022-09-09T10:57:52;19.90;99.90
26278;DHT22;14000;52.056;8.510;2022-09-09T11:03:04;20.10;99.90
26278;DHT22;14000;52.056;8.510;2022-09-09T11:05:53;20.10;99.90
26278;DHT22;14000;52.056;8.510;2022-09-09T11:08:20;20.20;99.90
26278;DHT22;14000;52.056;8.510;2022-09-09T11:11:19;20.50;99.90
26278;DHT22;14000;52.056;8.510;2022-09-09T11:13:58;20.70;99.90
26278;DHT22;14000;52.056;8.510;2022-09-09T11:16:44;20.80;99.90
26278;DHT22;14000;52.056;8.510;2022-09-09T11:21:55;21.80;99.90
26278;DHT22;14000;52.056;8.510;2022-09-09T11:24:37;22.50;99.90
26278;DHT22;14000;52.056;8.510;2022-09-09T11:38:25;26.10;99.90
26278;DHT22;14000;52.056;8.510;2022-09-09T11:40:58;26.40;99.90
26278;DHT22;14000;52.056;8.510;2022-09-09T11:43:39;26.00;99.90
26278;DHT22;14000;52.056;8.510;2022-09-09T11:46:05;26.00;99.90
26278;DHT22;14000;52.056;8.510;2022-09-09T11:51:13;25.00;99.90
26278;DHT22;14000;52.056;8.510;2022-09-09T11:53:53;23.90;99.90
26278;DHT22;14000;52.056;8.510;2022-09-09T11:56:42;23.40;99.90
26278;DHT22;14000;52.056;8.510;2022-09-09T11:59:26;23.10;99.90
26278;DHT22;14000;52.056;8.510;2022-09-09T12:02:10;22.70;99.90
26278;DHT22;14000;52.056;8.510;2022-09-09T12:09:56;22.20;99.90
26278;DHT22;14000;52.056;8.510;2022-09-09T12:12:28;22.60;99.90
26278;DHT22;14000;52.056;8.510;2022-09-09T12:14:57;22.70;99.90
26278;DHT22;14000;52.056;8.510;2022-09-09T12:17:25;22.90;99.90
26278;DHT22;14000;52.056;8.510;2022-09-09T12:20:04;23.50;99.90
26278;DHT22;14000;52.056;8.510;2022-09-09T12:33:46;24.10;99.90
26278;DHT22;14000;52.056;8.510;2022-09-09T12:36:16;24.30;99.90
26278;DHT22;14000;52.056;8.510;2022-09-09T12:38:43;24.30;99.90
26278;DHT22;14000;52.056;8.510;2022-09-09T12:41:24;24.20;99.90
26278;DHT22;14000;52.056;8.510;2022-09-09T12:43:51;24.40;99.90
26278;DHT22;14000;52.056;8.510;2022-09-09T12:46:39;24.50;99.90
26278;DHT22;14000;52.056;8.510;2022-09-09T12:49:26;24.30;99.90
26278;DHT22;14000;52.056;8.510;2022-09-09T12:51:53;23.90;99.90
26278;DHT22;14000;52.056;8.510;2022-09-09T12:54:19;23.50;99.90
26278;DHT22;14000;52.056;8.510;2022-09-09T12:56:47;23.50;99.90
26278;DHT22;14000;52.056;8.510;2022-09-09T12:59:36;23.50;99.90
26278;DHT22;14000;52.056;8.510;2022-09-09T13:02:01;23.30;99.90
26278;DHT22;14000;52.056;8.510;2022-09-09T13:04:27;23.00;99.90
26278;DHT22;14000;52.056;8.510;2022-09-09T13:06:53;21.70;99.90
26278;DHT22;14000;52.056;8.510;2022-09-09T13:09:19;22.70;99.90
26278;DHT22;14000;52.056;8.510;2022-09-09T13:11:51;22.60;99.90
26278;DHT22;14000;52.056;8.510;2022-09-09T13:14:23;22.50;99.90
26278;DHT22;14000;52.056;8.510;2022-09-09T13:16:56;22.30;99.90
26278;DHT22;14000;52.056;8.510;2022-09-09T13:19:22;22.20;99.90
26278;DHT22;14000;52.056;8.510;2022-09-09T13:21:51;22.10;99.90
26278;DHT22;14000;52.056;8.510;2022-09-09T13:24:33;22.00;99.90
26278;DHT22;14000;52.056;8.510;2022-09-09T13:27:02;22.10;99.90
26278;DHT22;14000;52.056;8.510;2022-09-09T13:29:29;22.10;99.90
26278;DHT22;14000;52.056;8.510;2022-09-09T13:32:15;22.00;99.90
26278;DHT22;14000;52.056;8.510;2022-09-09T13:34:51;22.10;99.90
26278;DHT22;14000;52.056;8.510;2022-09-09T13:37:35;22.10;99.90
26278;DHT22;14000;52.056;8.510;2022-09-09T13:40:03;22.20;99.90
26278;DHT22;14000;52.056;8.510;2022-09-09T13:42:33;22.10;99.90
26278;DHT22;14000;52.056;8.510;2022-09-09T13:45:03;22.00;99.90
26278;DHT22;14000;52.056;8.510;2022-09-09T13:47:34;21.90;99.90
26278;DHT22;14000;52.056;8.510;2022-09-09T13:52:45;22.30;99.90
26278;DHT22;14000;52.056;8.510;2022-09-09T13:55:12;22.70;99.90
26278;DHT22;14000;52.056;8.510;2022-09-09T13:57:38;23.00;99.90
26278;DHT22;14000;52.056;8.510;2022-09-09T14:00:06;23.20;99.90
26278;DHT22;14000;52.056;8.510;2022-09-09T14:02:34;23.50;99.90
26278;DHT22;14000;52.056;8.510;2022-09-09T14:04:59;23.90;99.90
26278;DHT22;14000;52.056;8.510;2022-09-09T14:07:25;24.50;99.90
26278;DHT22;14000;52.056;8.510;2022-09-09T14:09:50;25.50;99.90
26278;DHT22;14000;52.056;8.510;2022-09-09T14:12:17;26.10;99.90
26278;DHT22;14000;52.056;8.510;2022-09-09T14:14:43;26.50;99.90
26278;DHT22;14000;52.056;8.510;2022-09-09T14:17:09;26.90;99.90
26278;DHT22;14000;52.056;8.510;2022-09-09T14:19:35;27.50;99.90
26278;DHT22;14000;52.056;8.510;2022-09-09T14:22:02;27.90;99.90
26278;DHT22;14000;52.056;8.510;2022-09-09T14:24:28;28.40;99.90
26278;DHT22;14000;52.056;8.510;2022-09-09T14:26:54;28.30;99.90
26278;DHT22;14000;52.056;8.510;2022-09-09T14:29:19;28.10;99.90
26278;DHT22;14000;52.056;8.510;2022-09-09T14:31:45;27.10;99.90
26278;DHT22;14000;52.056;8.510;2022-09-09T14:34:11;26.10;99.90
26278;DHT22;14000;52.056;8.510;2022-09-09T14:36:37;25.20;99.90
26278;DHT22;14000;52.056;8.510;2022-09-09T14:39:04;24.60;99.90
26278;DHT22;14000;52.056;8.510;2022-09-09T14:41:30;24.30;99.90
26278;DHT22;14000;52.056;8.510;2022-09-09T14:43:56;24.10;99.90
26278;DHT22;14000;52.056;8.510;2022-09-09T14:46:22;23.90;99.90
26278;DHT22;14000;52.056;8.510;2022-09-09T14:48:48;23.60;99.90
26278;DHT22;14000;52.056;8.510;2022-09-09T14:51:15;23.30;99.90
26278;DHT22;14000;52.056;8.510;2022-09-09T14:53:42;23.10;99.90
26278;DHT22;14000;52.056;8.510;2022-09-09T14:58:36;23.10;99.90
26278;DHT22;14000;52.056;8.510;2022-09-09T15:01:05;22.90;99.90
26278;DHT22;14000;52.056;8.510;2022-09-09T15:03:30;22.70;99.90
26278;DHT22;14000;52.056;8.510;2022-09-09T15:05:56;22.70;99.90
26278;DHT22;14000;52.056;8.510;2022-09-09T15:08:24;22.60;99.90
26278;DHT22;14000;52.056;8.510;2022-09-09T15:10:49;22.70;99.90
26278;DHT22;14000;52.056;8.510;2022-09-09T15:13:17;22.70;99.90
26278;DHT22;14000;52.056;8.510;2022-09-09T15:15:42;22.70;99.90
26278;DHT22;14000;52.056;8.510;2022-09-09T15:18:09;22.70;99.90
26278;DHT22;14000;52.056;8.510;2022-09-09T15:20:34;22.70;99.90
26278;DHT22;14000;52.056;8.510;2022-09-09T15:23:00;22.70;99.90
26278;DHT22;14000;52.056;8.510;2022-09-09T15:25:26;22.60;99.90
26278;DHT22;14000;52.056;8.510;2022-09-09T15:27:52;22.40;99.90
26278;DHT22;14000;52.056;8.510;2022-09-09T15:30:17;22.30;99.90
26278;DHT22;14000;52.056;8.510;2022-09-09T15:32:43;22.10;99.90
26278;DHT22;14000;52.056;8.510;2022-09-09T15:35:08;21.90;99.90
26278;DHT22;14000;52.056;8.510;2022-09-09T15:37:34;21.80;99.90
26278;DHT22;14000;52.056;8.510;2022-09-09T15:40:00;21.80;99.90
26278;DHT22;14000;52.056;8.510;2022-09-09T15:42:26;21.70;99.90
26278;DHT22;14000;52.056;8.510;2022-09-09T15:44:51;21.50;99.90
26278;DHT22;14000;52.056;8.510;2022-09-09T15:47:17;21.50;99.90
26278;DHT22;14000;52.056;8.510;2022-09-09T15:49:43;21.40;99.90
26278;DHT22;14000;52.056;8.510;2022-09-09T15:52:10;21.30;99.90
26278;DHT22;14000;52.056;8.510;2022-09-09T15:54:39;21.10;99.90
26278;DHT22;14000;52.056;8.510;2022-09-09T15:57:07;21.00;99.90
26278;DHT22;14000;52.056;8.510;2022-09-09T15:59:34;20.90;99.90
26278;DHT22;14000;52.056;8.510;2022-09-09T16:01:59;20.70;99.90
26278;DHT22;14000;52.056;8.510;2022-09-09T16:04:26;20.70;99.90
26278;DHT22;14000;52.056;8.510;2022-09-09T16:06:53;20.70;99.90
26278;DHT22;14000;52.056;8.510;2022-09-09T16:09:20;20.60;99.90
26278;DHT22;14000;52.056;8.510;2022-09-09T16:11:46;20.60;99.90
26278;DHT22;14000;52.056;8.510;2022-09-09T16:14:13;20.50;99.90
26278;DHT22;14000;52.056;8.510;2022-09-09T16:16:41;20.50;99.90
26278;DHT22;14000;52.056;8.510;2022-09-09T16:19:09;20.40;99.90
26278;DHT22;14000;52.056;8.510;2022-09-09T16:21:44;20.40;99.90
26278;DHT22;14000;52.056;8.510;2022-09-09T16:24:13;20.40;99.90
26278;DHT22;14000;52.056;8.510;2022-09-09T16:26:43;20.50;99.90
26278;DHT22;14000;52.056;8.510;2022-09-09T16:29:12;20.50;99.90
26278;DHT22;14000;52.056;8.510;2022-09-09T16:31:39;20.60;99.90
26278;DHT22;14000;52.056;8.510;2022-09-09T16:34:06;20.70;99.90
26278;DHT22;14000;52.056;8.510;2022-09-09T16:36:34;20.50;99.90
26278;DHT22;14000;52.056;8.510;2022-09-09T16:39:06;20.50;99.90
26278;DHT22;14000;52.056;8.510;2022-09-09T16:41:32;20.50;99.90
26278;DHT22;14000;52.056;8.510;2022-09-09T16:44:01;20.50;99.90
26278;DHT22;14000;52.056;8.510;2022-09-09T16:46:28;20.50;99.90
26278;DHT22;14000;52.056;8.510;2022-09-09T16:48:56;20.40;99.90
26278;DHT22;14000;52.056;8.510;2022-09-09T16:51:27;20.40;99.90
26278;DHT22;14000;52.056;8.510;2022-09-09T16:53:55;20.40;99.90
26278;DHT22;14000;52.056;8.510;2022-09-09T16:56:25;20.30;99.90
26278;DHT22;14000;52.056;8.510;2022-09-09T16:58:53;20.40;99.90
26278;DHT22;14000;52.056;8.510;2022-09-09T17:01:31;20.30;99.90
26278;DHT22;14000;52.056;8.510;2022-09-09T17:04:00;20.30;99.90
26278;DHT22;14000;52.056;8.510;2022-09-09T17:06:35;20.20;99.90
26278;DHT22;14000;52.056;8.510;2022-09-09T17:09:05;20.00;99.90
26278;DHT22;14000;52.056;8.510;2022-09-09T17:11:31;20.00;99.90
26278;DHT22;14000;52.056;8.510;2022-09-09T17:13:57;19.90;99.90
26278;DHT22;14000;52.056;8.510;2022-09-09T17:16:28;19.90;99.90
26278;DHT22;14000;52.056;8.510;2022-09-09T17:18:55;19.70;99.90
26278;DHT22;14000;52.056;8.510;2022-09-09T17:21:23;19.70;99.90
26278;DHT22;14000;52.056;8.510;2022-09-09T17:23:51;19.70;99.90
26278;DHT22;14000;52.056;8.510;2022-09-09T17:26:19;19.70;99.90
26278;DHT22;14000;52.056;8.510;2022-09-09T17:28:45;19.50;99.90
26278;DHT22;14000;52.056;8.510;2022-09-09T17:31:12;19.30;99.90
26278;DHT22;14000;52.056;8.510;2022-09-09T17:33:40;19.00;99.90
26278;DHT22;14000;52.056;8.510;2022-09-09T17:36:11;18.80;99.90
26278;DHT22;14000;52.056;8.510;2022-09-09T17:38:38;18.50;99.90
26278;DHT22;14000;52.056;8.510;2022-09-09T17:41:10;18.20;99.90
26278;DHT22;14000;52.056;8.510;2022-09-09T17:43:36;18.00;99.90
26278;DHT22;14000;52.056;8.510;2022-09-09T17:48:34;17.90;99.90
26278;DHT22;14000;52.056;8.510;2022-09-09T17:51:04;17.80;99.90
26278;DHT22;14000;52.056;8.510;2022-09-09T17:53:35;17.70;99.90
26278;DHT22;14000;52.056;8.510;2022-09-09T17:56:03;17.70;99.90
26278;DHT22;14000;52.056;8.510;2022-09-09T17:58:29;17.70;99.90